createdAt,value
2019-03-30T00:05:09.001Z,98987.02
2019-03-30T00:07:40.227Z,98991.07
2019-03-30T00:10:19.984Z,98989.23
2019-03-30T00:12:52.470Z,98984.52
2019-03-30T00:15:24.368Z,98995.00
2019-03-30T00:18:16.187Z,98989.42
2019-03-30T00:20:49.894Z,98985.52
2019-03-30T00:23:22.341Z,98987.77
2019-03-30T00:25:55.849Z,98984.05
2019-03-30T00:28:27.260Z,98984.84
2019-03-30T00:30:58.813Z,98979.20
2019-03-30T00:33:52.966Z,98983.70
2019-03-30T00:36:24.673Z,98980.07
2019-03-30T00:38:56.006Z,98979.24
2019-03-30T00:41:27.467Z,98984.23
2019-03-30T00:43:58.594Z,98980.45
2019-03-30T00:46:29.839Z,98975.73
2019-03-30T00:49:01.381Z,98976.61
2019-03-30T00:51:33.215Z,98975.34
2019-03-30T00:54:05.000Z,98970.63
2019-03-30T00:56:36.677Z,98976.52
2019-03-30T00:59:07.956Z,98977.55
2019-03-30T01:01:39.155Z,98976.33
2019-03-30T01:04:11.696Z,98972.44
2019-03-30T01:06:43.095Z,98976.91
2019-03-30T01:09:14.422Z,98972.44
2019-03-30T01:11:45.606Z,98974.76
2019-03-30T01:14:16.825Z,98964.41
2019-03-30T01:16:49.337Z,98961.03
2019-03-30T01:19:22.060Z,98960.30
2019-03-30T01:21:56.081Z,98959.16
2019-03-30T01:24:26.547Z,98953.06
2019-03-30T01:26:58.650Z,98955.74
2019-03-30T01:29:29.803Z,98953.53
2019-03-30T01:32:02.131Z,98952.62
2019-03-30T01:34:33.999Z,98944.45
2019-03-30T01:37:05.334Z,98945.70
2019-03-30T01:39:37.480Z,98947.73
2019-03-30T01:42:08.968Z,98935.30
2019-03-30T01:44:42.543Z,98935.27
2019-03-30T01:47:14.155Z,98930.02
2019-03-30T01:49:45.731Z,98924.48
2019-03-30T01:52:18.067Z,98926.27
2019-03-30T01:54:49.821Z,98923.68
2019-03-30T01:57:20.868Z,98918.08
2019-03-30T01:59:52.172Z,98921.33
2019-03-30T02:02:23.202Z,98926.44
2019-03-30T02:04:54.278Z,98919.88
2019-03-30T02:07:25.344Z,98919.37
2019-03-30T02:09:58.265Z,98928.12
2019-03-30T02:12:29.349Z,98928.20
2019-03-30T02:15:00.379Z,98926.69
2019-03-30T02:17:31.872Z,98924.61
2019-03-30T02:20:03.135Z,98930.31
2019-03-30T02:22:34.124Z,98933.70
2019-03-30T02:25:05.444Z,98928.38
2019-03-30T02:27:37.160Z,98928.63
2019-03-30T02:30:09.268Z,98930.09
2019-03-30T02:32:41.363Z,98928.61
2019-03-30T02:35:13.502Z,98925.31
2019-03-30T02:37:45.412Z,98927.11
2019-03-30T02:40:16.599Z,98924.57
2019-03-30T02:42:50.761Z,98925.58
2019-03-30T02:45:22.014Z,98920.98
2019-03-30T02:47:53.313Z,98921.80
2019-03-30T02:50:24.634Z,98924.88
2019-03-30T02:52:55.723Z,98918.17
2019-03-30T02:55:27.200Z,98915.59
2019-03-30T02:57:58.815Z,98921.30
2019-03-30T03:00:30.978Z,98920.00
2019-03-30T03:03:04.478Z,98912.80
2019-03-30T03:05:36.118Z,98917.46
2019-03-30T03:08:07.443Z,98912.30
2019-03-30T03:10:38.461Z,98912.80
2019-03-30T03:13:11.228Z,98911.42
2019-03-30T03:15:42.195Z,98904.30
2019-03-30T03:18:13.527Z,98902.66
2019-03-30T03:20:44.690Z,98906.91
2019-03-30T03:23:15.749Z,98905.52
2019-03-30T03:25:47.159Z,98899.42
2019-03-30T03:28:18.233Z,98902.36
2019-03-30T03:30:49.247Z,98898.34
2019-03-30T03:33:20.223Z,98900.10
2019-03-30T03:35:52.219Z,98898.75
2019-03-30T03:38:23.426Z,98903.52
2019-03-30T03:40:54.967Z,98900.41
2019-03-30T03:43:26.105Z,98900.91
2019-03-30T03:45:57.314Z,98902.28
2019-03-30T03:48:28.688Z,98897.59
2019-03-30T03:51:03.130Z,98896.68
2019-03-30T03:53:36.012Z,98895.16
2019-03-30T03:56:07.462Z,98896.73
2019-03-30T03:58:40.567Z,98901.48
2019-03-30T04:01:13.213Z,98894.73
2019-03-30T04:03:46.733Z,98896.11
2019-03-30T04:06:22.098Z,98890.59
2019-03-30T04:08:57.898Z,98896.16
2019-03-30T04:11:31.634Z,98892.27
2019-03-30T04:14:04.349Z,98884.67
2019-03-30T04:16:36.458Z,98888.48
2019-03-30T04:19:12.849Z,98898.05
2019-03-30T04:21:50.736Z,98897.27
2019-03-30T04:24:22.789Z,98896.55
2019-03-30T04:26:59.092Z,98900.98
2019-03-30T04:29:45.481Z,98899.27
2019-03-30T04:32:16.688Z,98898.34
2019-03-30T04:34:53.757Z,98888.40
2019-03-30T04:37:24.870Z,98890.37
2019-03-30T04:40:01.851Z,98885.31
2019-03-30T04:42:43.495Z,98884.31
2019-03-30T04:48:12.904Z,98877.47
2019-03-30T04:50:49.095Z,98880.08
2019-03-30T04:53:36.985Z,98874.00
2019-03-30T04:56:10.322Z,98876.61
2019-03-30T04:58:47.046Z,98875.03
2019-03-30T05:01:19.828Z,98874.32
2019-03-30T05:03:50.934Z,98876.81
2019-03-30T05:06:29.657Z,98879.94
2019-03-30T05:09:10.540Z,98877.84
2019-03-30T05:11:46.822Z,98872.72
2019-03-30T05:14:25.558Z,98881.73
2019-03-30T05:16:56.777Z,98882.66
2019-03-30T05:19:28.068Z,98875.75
2019-03-30T05:22:11.499Z,98882.09
2019-03-30T05:24:31.924Z,98883.44
2019-03-30T05:27:08.167Z,98882.58
2019-03-30T05:29:39.300Z,98887.78
2019-03-30T05:32:10.315Z,98887.03
2019-03-30T05:34:55.082Z,98894.45
2019-03-30T05:37:33.851Z,98880.14
2019-03-30T05:40:09.101Z,98890.98
2019-03-30T05:42:46.613Z,98885.81
2019-03-30T05:45:22.615Z,98898.63
2019-03-30T05:48:00.138Z,98895.16
2019-03-30T05:50:37.253Z,98898.61
2019-03-30T05:53:10.944Z,98895.82
2019-03-30T05:55:53.682Z,98895.02
2019-03-30T05:58:27.341Z,98899.22
2019-03-30T06:01:11.003Z,98896.63
2019-03-30T06:03:57.713Z,98896.83
2019-03-30T06:06:58.271Z,98894.45
2019-03-30T06:10:07.136Z,98889.76
2019-03-30T06:13:21.593Z,98896.45
2019-03-30T06:16:09.746Z,98897.30
2019-03-30T06:18:40.979Z,98891.66
2019-03-30T06:21:23.219Z,98893.77
2019-03-30T06:23:59.619Z,98886.78
2019-03-30T06:26:49.228Z,98890.33
2019-03-30T06:29:37.429Z,98886.71
2019-03-30T06:32:10.440Z,98887.17
2019-03-30T06:34:59.076Z,98891.97
2019-03-30T06:37:30.572Z,98885.55
2019-03-30T06:40:01.568Z,98891.19
2019-03-30T06:42:34.016Z,98893.12
2019-03-30T06:45:05.464Z,98888.15
2019-03-30T06:47:36.794Z,98889.08
2019-03-30T06:50:09.836Z,98891.50
2019-03-30T06:52:58.634Z,98886.66
2019-03-30T06:55:39.540Z,98889.25
2019-03-30T06:58:25.516Z,98889.59
2019-03-30T07:01:07.185Z,98892.60
2019-03-30T07:03:38.580Z,98889.02
2019-03-30T07:06:33.403Z,98891.94
2019-03-30T07:09:08.508Z,98889.77
2019-03-30T07:11:51.038Z,98893.41
2019-03-30T07:14:43.853Z,98890.65
2019-03-30T07:17:19.718Z,98896.51
2019-03-30T07:19:59.919Z,98896.86
2019-03-30T07:22:40.051Z,98897.55
2019-03-30T07:25:19.878Z,98899.23
2019-03-30T07:28:15.339Z,98912.72
2019-03-30T07:30:48.732Z,98904.94
2019-03-30T07:33:45.901Z,98905.16
2019-03-30T07:36:23.495Z,98902.88
2019-03-30T07:39:06.726Z,98904.37
2019-03-30T07:41:38.664Z,98900.83
2019-03-30T07:44:22.253Z,98903.22
2019-03-30T07:47:08.386Z,98902.38
2019-03-30T07:49:39.437Z,98908.84
2019-03-30T07:52:14.018Z,98907.83
2019-03-30T07:54:45.065Z,98908.48
2019-03-30T07:57:24.084Z,98913.80
2019-03-30T07:59:58.526Z,98910.86
2019-03-30T08:02:55.246Z,98919.77
2019-03-30T08:05:26.460Z,98916.45
2019-03-30T08:07:57.911Z,98918.91
2019-03-30T08:10:28.978Z,98922.97
2019-03-30T08:13:00.024Z,98927.83
2019-03-30T08:15:30.998Z,98925.55
2019-03-30T08:18:06.603Z,98919.27
2019-03-30T08:20:37.587Z,98919.41
2019-03-30T08:23:08.817Z,98924.80
2019-03-30T08:25:40.447Z,98919.84
2019-03-30T08:28:11.851Z,98924.74
2019-03-30T08:30:43.062Z,98931.84
2019-03-30T08:33:15.853Z,98927.97
2019-03-30T08:35:49.190Z,98925.33
2019-03-30T08:38:20.324Z,98926.47
2019-03-30T08:41:10.640Z,98928.20
2019-03-30T08:43:42.851Z,98926.23
2019-03-30T08:46:21.621Z,98931.36
2019-03-30T08:48:59.806Z,98931.09
2019-03-30T08:51:39.857Z,98934.02
2019-03-30T08:54:28.910Z,98931.78
2019-03-30T08:57:17.310Z,98929.50
2019-03-30T08:59:52.864Z,98926.13
2019-03-30T09:02:24.379Z,98924.83
2019-03-30T09:05:03.371Z,98930.66
2019-03-30T09:07:41.189Z,98927.37
2019-03-30T09:10:18.402Z,98934.36
2019-03-30T09:12:50.629Z,98931.96
2019-03-30T09:15:22.275Z,98932.59
2019-03-30T09:18:06.741Z,98932.94
2019-03-30T09:20:38.877Z,98930.00
2019-03-30T09:23:28.321Z,98934.69
2019-03-30T09:26:31.216Z,98935.67
2019-03-30T09:29:31.947Z,98932.00
2019-03-30T09:32:14.323Z,98934.51
2019-03-30T09:34:56.679Z,98930.67
2019-03-30T09:37:30.804Z,98928.48
2019-03-30T09:40:02.291Z,98922.48
2019-03-30T09:42:33.886Z,98916.83
2019-03-30T09:45:10.043Z,98915.70
2019-03-30T09:47:41.525Z,98912.83
2019-03-30T09:50:13.643Z,98902.95
2019-03-30T09:52:46.033Z,98900.17
2019-03-30T09:55:17.164Z,98894.75
2019-03-30T09:57:48.581Z,98889.88
2019-03-30T10:00:27.339Z,98892.86
2019-03-30T10:02:59.131Z,98886.00
2019-03-30T10:05:30.575Z,98880.81
2019-03-30T10:08:04.192Z,98879.44
2019-03-30T10:10:38.044Z,98874.48
2019-03-30T10:13:20.632Z,98876.14
2019-03-30T10:16:00.899Z,98867.91
2019-03-30T10:18:32.508Z,98867.48
2019-03-30T10:21:03.966Z,98874.11
2019-03-30T10:23:34.894Z,98864.06
2019-03-30T10:26:06.333Z,98868.46
2019-03-30T10:28:53.654Z,98866.23
2019-03-30T10:31:43.214Z,98859.28
2019-03-30T10:34:16.063Z,98858.52
2019-03-30T10:36:47.125Z,98857.76
2019-03-30T10:39:19.939Z,98849.38
2019-03-30T10:41:56.855Z,98841.53
2019-03-30T10:44:30.913Z,98838.78
2019-03-30T10:47:02.302Z,98841.13
2019-03-30T10:49:36.690Z,98838.86
2019-03-30T10:52:09.681Z,98841.18
2019-03-30T10:54:53.822Z,98840.17
2019-03-30T10:57:36.849Z,98823.38
2019-03-30T11:00:09.561Z,98816.69
2019-03-30T11:02:41.268Z,98814.67
2019-03-30T11:05:13.327Z,98814.81
2019-03-30T11:07:44.439Z,98809.84
2019-03-30T11:10:15.433Z,98809.17
2019-03-30T11:12:46.680Z,98806.80
2019-03-30T11:15:17.812Z,98799.39
2019-03-30T11:17:48.883Z,98804.05
2019-03-30T11:20:19.953Z,98805.49
2019-03-30T11:22:50.979Z,98793.83
2019-03-30T11:25:22.386Z,98793.36
2019-03-30T11:27:53.405Z,98790.19
2019-03-30T11:30:24.508Z,98791.18
2019-03-30T11:32:56.699Z,98784.68
2019-03-30T11:35:27.968Z,98780.21
2019-03-30T11:38:01.377Z,98770.97
2019-03-30T11:40:44.498Z,98768.91
2019-03-30T11:43:17.823Z,98773.28
2019-03-30T11:45:50.768Z,98762.45
2019-03-30T11:48:22.409Z,98759.16
2019-03-30T11:50:54.313Z,98754.98
2019-03-30T11:53:28.337Z,98758.47
2019-03-30T11:55:59.801Z,98746.30
2019-03-30T11:58:34.065Z,98742.39
2019-03-30T12:01:05.225Z,98739.38
2019-03-30T12:04:36.277Z,98735.75
2019-03-30T12:07:09.574Z,98738.41
2019-03-30T12:09:40.934Z,98731.33
2019-03-30T12:12:12.846Z,98732.27
2019-03-30T12:14:47.501Z,98727.48
2019-03-30T12:17:24.185Z,98725.33
2019-03-30T12:19:56.193Z,98721.16
2019-03-30T12:22:32.816Z,98717.22
2019-03-30T12:25:05.391Z,98715.03
2019-03-30T12:27:36.868Z,98722.83
2019-03-30T12:30:09.151Z,98712.96
2019-03-30T12:32:43.644Z,98709.06
2019-03-30T12:35:16.016Z,98702.74
2019-03-30T12:37:51.615Z,98706.88
2019-03-30T12:40:24.035Z,98707.52
2019-03-30T12:42:55.743Z,98692.75
2019-03-30T12:45:28.474Z,98691.82
2019-03-30T12:48:00.451Z,98691.28
2019-03-30T12:50:36.342Z,98690.08
2019-03-30T12:53:08.865Z,98682.17
2019-03-30T12:55:49.085Z,98679.77
2019-03-30T12:58:15.396Z,98673.27
2019-03-30T13:00:47.991Z,98671.42
2019-03-30T13:03:32.000Z,98665.42
2019-03-30T13:06:03.655Z,98661.39
2019-03-30T13:08:35.728Z,98668.70
2019-03-30T13:11:15.444Z,98666.59
2019-03-30T13:13:47.448Z,98664.16
2019-03-30T13:16:19.333Z,98660.59
2019-03-30T13:18:51.474Z,98660.37
2019-03-30T13:21:26.533Z,98662.89
2019-03-30T13:23:59.100Z,98649.52
2019-03-30T13:26:32.369Z,98647.34
2019-03-30T13:29:03.378Z,98648.36
2019-03-30T13:31:35.451Z,98645.51
2019-03-30T13:34:08.464Z,98642.80
2019-03-30T13:36:43.492Z,98643.86
2019-03-30T13:39:14.572Z,98639.59
2019-03-30T13:41:46.183Z,98634.64
2019-03-30T13:44:20.960Z,98623.28
2019-03-30T13:46:56.209Z,98622.61
2019-03-30T13:49:29.670Z,98615.73
2019-03-30T13:52:02.766Z,98616.93
2019-03-30T13:54:34.067Z,98616.57
2019-03-30T13:57:05.743Z,98617.80
2019-03-30T13:59:46.284Z,98619.72
2019-03-30T14:02:27.415Z,98619.73
2019-03-30T14:04:54.849Z,98620.17
2019-03-30T14:07:28.049Z,98620.57
2019-03-30T14:10:00.399Z,98624.88
2019-03-30T14:12:33.102Z,98615.03
2019-03-30T14:15:09.754Z,98617.13
2019-03-30T14:17:42.183Z,98612.33
2019-03-30T14:20:13.301Z,98618.62
2019-03-30T14:22:44.395Z,98624.79
2019-03-30T14:25:15.737Z,98611.35
2019-03-30T14:27:49.377Z,98612.77
2019-03-30T14:30:21.374Z,98607.31
2019-03-30T14:32:58.973Z,98592.94
2019-03-30T14:35:32.313Z,98592.50
2019-03-30T14:38:06.218Z,98594.59
2019-03-30T14:40:37.657Z,98597.45
2019-03-30T14:43:10.194Z,98585.93
2019-03-30T14:45:41.217Z,98582.59
2019-03-30T14:48:18.724Z,98583.64
2019-03-30T14:50:51.290Z,98579.30
2019-03-30T14:53:23.224Z,98578.03
2019-03-30T14:55:58.420Z,98570.56
2019-03-30T14:58:31.508Z,98566.31
2019-03-30T15:01:03.614Z,98563.66
2019-03-30T15:03:44.119Z,98550.41
2019-03-30T15:06:26.878Z,98563.20
2019-03-30T15:08:57.953Z,98555.64
2019-03-30T15:11:29.369Z,98561.41
2019-03-30T15:14:01.297Z,98562.89
2019-03-30T15:16:34.555Z,98569.30
2019-03-30T15:19:06.428Z,98556.89
2019-03-30T15:21:39.935Z,98545.88
2019-03-30T15:24:11.489Z,98544.84
2019-03-30T15:26:53.885Z,98541.56
2019-03-30T15:29:20.205Z,98543.71
2019-03-30T15:31:51.431Z,98539.10
2019-03-30T15:34:26.052Z,98532.84
2019-03-30T15:37:00.500Z,98538.91
2019-03-30T15:39:36.331Z,98529.05
2019-03-30T15:42:08.140Z,98532.17
2019-03-30T15:44:45.448Z,98527.39
2019-03-30T15:47:21.223Z,98529.69
2019-03-30T15:49:52.358Z,98527.60
2019-03-30T15:52:23.869Z,98528.13
2019-03-30T15:54:56.505Z,98527.95
2019-03-30T15:57:29.109Z,98527.72
2019-03-30T16:00:02.268Z,98523.98
2019-03-30T16:02:35.738Z,98519.33
2019-03-30T16:05:10.622Z,98521.62
2019-03-30T16:07:42.650Z,98521.19
2019-03-30T16:10:16.820Z,98517.43
2019-03-30T16:12:49.675Z,98518.41
2019-03-30T16:15:21.167Z,98507.73
2019-03-30T16:17:54.152Z,98511.33
2019-03-30T16:20:36.068Z,98511.80
2019-03-30T16:23:10.122Z,98506.75
2019-03-30T16:25:41.672Z,98499.34
2019-03-30T16:28:15.327Z,98493.84
2019-03-30T16:30:46.595Z,98483.42
2019-03-30T16:33:19.083Z,98481.23
2019-03-30T16:35:52.044Z,98478.85
2019-03-30T16:38:25.931Z,98477.41
2019-03-30T16:40:57.182Z,98467.81
2019-03-30T16:43:28.562Z,98471.95
2019-03-30T16:46:00.774Z,98466.77
2019-03-30T16:48:31.877Z,98466.42
2019-03-30T16:51:05.958Z,98468.87
2019-03-30T16:53:38.985Z,98466.92
2019-03-30T16:56:10.917Z,98463.88
2019-03-30T16:58:42.261Z,98461.44
2019-03-30T17:01:18.408Z,98458.28
2019-03-30T17:03:51.075Z,98461.72
2019-03-30T17:06:24.129Z,98463.42
2019-03-30T17:09:01.437Z,98461.14
2019-03-30T17:14:09.089Z,98459.01
2019-03-30T17:16:40.143Z,98460.73
2019-03-30T17:19:15.208Z,98456.08
2019-03-30T17:22:04.979Z,98457.00
2019-03-30T17:24:54.775Z,98453.98
2019-03-30T17:27:37.541Z,98458.26
2019-03-30T17:30:19.755Z,98454.48
2019-03-30T17:32:51.739Z,98457.17
2019-03-30T17:35:22.879Z,98455.07
2019-03-30T17:38:12.644Z,98455.34
2019-03-30T17:40:43.945Z,98449.95
2019-03-30T17:43:15.006Z,98448.27
2019-03-30T17:46:04.677Z,98450.91
2019-03-30T17:48:35.915Z,98449.91
2019-03-30T17:51:07.351Z,98446.06
2019-03-30T17:59:44.088Z,98458.02
2019-03-30T18:02:15.292Z,98458.09
2019-03-30T18:05:05.639Z,98459.11
2019-03-30T18:08:01.998Z,98459.55
2019-03-30T18:10:42.677Z,98459.27
2019-03-30T18:13:16.503Z,98462.19
2019-03-30T18:15:50.339Z,98468.53
2019-03-30T18:18:40.124Z,98466.30
2019-03-30T18:21:31.548Z,98472.50
2019-03-30T18:24:21.194Z,98474.19
2019-03-30T18:26:54.996Z,98365.61
2019-03-30T18:32:20.227Z,98475.98
2019-03-30T18:35:02.387Z,98473.98
2019-03-30T18:37:35.775Z,98477.98
2019-03-30T18:40:29.450Z,98480.72
2019-03-30T18:43:02.788Z,98481.16
2019-03-30T18:45:34.297Z,98484.63
2019-03-30T18:48:24.723Z,98488.65
2019-03-30T18:51:15.156Z,98486.02
2019-03-30T18:56:41.438Z,98489.14
2019-03-30T18:59:31.380Z,98499.77
2019-03-30T19:02:02.897Z,98499.98
2019-03-30T19:04:52.270Z,98501.94
2019-03-30T19:08:47.100Z,98506.74
2019-03-30T19:11:40.237Z,98508.84
2019-03-30T19:14:32.510Z,98507.84
2019-03-30T19:17:23.251Z,98509.54
2019-03-30T19:19:56.928Z,98520.72
2019-03-30T19:22:47.697Z,98512.03
2019-03-30T19:25:30.544Z,98509.13
2019-03-30T19:28:20.643Z,98506.05
2019-03-30T19:30:59.023Z,98515.18
2019-03-30T19:33:48.880Z,98510.50
2019-03-30T19:36:38.683Z,98510.80
2019-03-30T19:39:28.406Z,98515.74
2019-03-30T19:42:01.985Z,98518.18
2019-03-30T19:44:33.035Z,98511.33
2019-03-30T19:47:23.041Z,98509.38
2019-03-30T19:49:54.125Z,98512.36
2019-03-30T19:52:39.242Z,98513.66
2019-03-30T19:54:58.360Z,98521.95
2019-03-30T19:57:29.612Z,98513.52
2019-03-30T20:00:19.641Z,98517.34
2019-03-30T20:03:24.519Z,98515.82
2019-03-30T20:09:08.549Z,98513.91
2019-03-30T20:11:59.697Z,98522.84
2019-03-30T20:14:49.362Z,98520.58
2019-03-30T20:17:58.702Z,98524.73
2019-03-30T20:20:50.463Z,98402.91
2019-03-30T20:23:40.167Z,98453.01
2019-03-30T20:26:31.152Z,98522.63
2019-03-30T20:29:03.748Z,98519.23
2019-03-30T20:31:34.883Z,98515.96
2019-03-30T20:34:27.223Z,98520.34
2019-03-30T20:37:17.436Z,98517.38
2019-03-30T20:40:09.497Z,98514.05
2019-03-30T20:43:35.630Z,98515.30
2019-03-30T20:46:26.124Z,98516.48
2019-03-30T20:52:21.955Z,98511.08
2019-03-30T20:54:53.175Z,98507.75
2019-03-30T20:57:45.063Z,98506.48
2019-03-30T21:00:45.399Z,98451.30
2019-03-30T21:03:38.996Z,98507.87
2019-03-30T21:06:10.360Z,98509.37
2019-03-30T21:09:01.940Z,98507.23
2019-03-30T21:11:59.223Z,98504.70
2019-03-30T21:14:32.316Z,98508.62
2019-03-30T21:17:05.156Z,98508.63
2019-03-30T21:20:01.522Z,98509.73
2019-03-30T21:22:41.260Z,98503.97
2019-03-30T21:25:52.468Z,98507.44
2019-03-30T21:28:43.035Z,98503.43
2019-03-30T21:31:27.779Z,98509.59
2019-03-30T21:34:26.554Z,98495.59
2019-03-30T21:37:17.783Z,98503.38
2019-03-30T21:40:01.600Z,98503.53
2019-03-30T21:45:14.886Z,98502.67
2019-03-30T21:48:08.846Z,98496.66
2019-03-30T21:51:02.798Z,98497.81
2019-03-30T21:53:53.693Z,98499.95
2019-03-30T21:56:26.852Z,98497.89
2019-03-30T21:59:19.932Z,98496.03
2019-03-30T22:02:10.208Z,98497.69
2019-03-30T22:05:20.938Z,98495.12
2019-03-30T22:11:48.208Z,98492.27
2019-03-30T22:14:20.279Z,98450.18
2019-03-30T22:17:10.557Z,98488.67
2019-03-30T22:20:01.077Z,98490.73
2019-03-30T22:22:52.031Z,98496.38
2019-03-30T22:25:30.762Z,98485.50
2019-03-30T22:28:26.704Z,98490.41
2019-03-30T22:31:08.739Z,98485.08
2019-03-30T22:34:20.851Z,98488.53
2019-03-30T22:36:57.431Z,98478.08
2019-03-30T22:39:29.982Z,98478.91
2019-03-30T22:42:22.789Z,98480.34
2019-03-30T22:45:01.570Z,98478.02
2019-03-30T22:47:54.432Z,98476.32
2019-03-30T22:50:26.069Z,98481.25
2019-03-30T22:56:28.699Z,98481.93
2019-03-30T22:59:18.466Z,98481.09
2019-03-30T23:01:53.929Z,98479.75
2019-03-30T23:04:44.749Z,98479.75
2019-03-30T23:07:18.205Z,98474.05
2019-03-30T23:10:08.440Z,98472.76
2019-03-30T23:13:05.693Z,98474.95
2019-03-30T23:15:55.438Z,98474.81
2019-03-30T23:18:26.677Z,98477.10
2019-03-30T23:21:17.529Z,98476.97
2019-03-30T23:23:50.984Z,98478.67
2019-03-30T23:26:23.919Z,98469.56
2019-03-30T23:28:55.410Z,98477.89
2019-03-30T23:34:08.705Z,98477.13
2019-03-30T23:36:39.917Z,98474.06
2019-03-30T23:39:29.629Z,98471.02
2019-03-30T23:42:00.985Z,98468.91
2019-03-30T23:44:31.999Z,98470.02
2019-03-30T23:47:21.819Z,98472.95
2019-03-30T23:49:53.971Z,98468.80
2019-03-30T23:52:43.890Z,98473.73
2019-03-30T23:55:15.131Z,98472.56
2019-03-30T23:58:09.652Z,98472.24
